Georgetown, IL (61846)

5:21 AM CDT on March 27, 2015 (GMT -0500)
Vermilion County Emergency Management Agency | | Change Station
CLOSE
Current Station
Personal Weather Station
Location: Danville, IL
Elevation: 655 ft
Nearby Weather Stations

Elev 655 ft 40.08 °N, 87.63 °W | Updated 5 seconds ago

Overcast
Overcast
32.0 °F
Feels Like 32 °F
N
0.0
Wind Variable Wind from NNE
Gusts 0.0 mph

Today
High -- | Low -- °F
--% Chance of Precip.
Yesterday
High -- | Low -- °F
Precip. -- in
6:42 AM 7:09 PM
Waxing Crescent, 51% visible
Pressure 30.02 in
Visibility 10.0 miles
Clouds Scattered Clouds 3200 ft
Mostly Cloudy 10000 ft
Windchill 32 °F
Dew Point 32 °F
Humidity 100%
Rainfall 0.00 in
Snow Depth Not available.
UV 0 out of 12
Pollen .70 out of 12
Air Quality Not available.
Flu Activity Not available.
METAR KDNV 271015Z AUTO 36003KT 10SM SCT032 BKN100 M02/M03 A3002 RMK AO2 T10171030

More Conditions Fewer Conditions

Pressure 30.02 in
Visibility 10.0 miles
Clouds Scattered Clouds 3200 ft
Mostly Cloudy 10000 ft
Windchill 32 °F
Dew Point 32 °F
Humidity 100%
Rainfall 0.00 in
Snow Depth Not available.
UV 0 out of 12
Pollen .70 out of 12
Air Quality Not available.
Flu Activity Not available.
METAR KDNV 271015Z AUTO 36003KT 10SM SCT032 BKN100 M02/M03 A3002 RMK AO2 T10171030

More Conditions Fewer Conditions

10-Day Weather Forecast

Almanac

Astronomy

Mar. 27, 2015 Rise Set
Actual Time
Civil Twilight
Nautical Twilight
Astronomical Twilight
Moon
Length of Visible Light
Length of Day
Tomorrow will be .
, % of the Moon is Illuminated

Today's Extremes

State Highs State Lows

Community

WunderPhotos

Upload Photos

1,808,706 photos uploaded!

WunderBlogs® & News

Nearby

Air Quality

  Air Quality AQ Index Pollutant
Not available.

Snow Depth

Station Depth Elevation

Earthquake Activity

City Distance Mag. Time & Date
Minimum magnitude displayed is 2.5.

Coastal Water Temperatures

Place Temperature

Stations

Nearby Weather Stations

Station Location Temp. Windchill Dew Point Humidity Wind Precip. Elev Updated Type